sensor_id;sensor_type;location;lat;lon;timestamp;temperature;humidity
70986;DHT22;58645;43.068;25.610;2024-03-22T00:01:45;6.70;99.90
70986;DHT22;58645;43.068;25.610;2024-03-22T00:04:11;6.70;99.90
70986;DHT22;58645;43.068;25.610;2024-03-22T00:06:37;6.70;99.90
70986;DHT22;58645;43.068;25.610;2024-03-22T00:09:03;6.70;99.90
70986;DHT22;58645;43.068;25.610;2024-03-22T00:11:29;6.70;99.90
70986;DHT22;58645;43.068;25.610;2024-03-22T00:13:55;6.60;99.90
70986;DHT22;58645;43.068;25.610;2024-03-22T00:16:20;6.50;99.90
70986;DHT22;58645;43.068;25.610;2024-03-22T00:18:46;6.50;99.90
70986;DHT22;58645;43.068;25.610;2024-03-22T00:21:12;6.50;99.90
70986;DHT22;58645;43.068;25.610;2024-03-22T00:23:37;6.50;99.90
70986;DHT22;58645;43.068;25.610;2024-03-22T00:26:03;6.30;99.90
70986;DHT22;58645;43.068;25.610;2024-03-22T00:28:29;6.20;99.90
70986;DHT22;58645;43.068;25.610;2024-03-22T00:30:55;6.10;99.90
70986;DHT22;58645;43.068;25.610;2024-03-22T00:33:20;6.10;99.90
70986;DHT22;58645;43.068;25.610;2024-03-22T00:35:47;6.00;99.90
70986;DHT22;58645;43.068;25.610;2024-03-22T00:38:13;6.00;99.90
70986;DHT22;58645;43.068;25.610;2024-03-22T00:40:38;5.90;99.90
70986;DHT22;58645;43.068;25.610;2024-03-22T00:43:06;5.80;99.90
70986;DHT22;58645;43.068;25.610;2024-03-22T00:45:32;5.60;99.90
70986;DHT22;58645;43.068;25.610;2024-03-22T00:47:58;5.60;99.90
70986;DHT22;58645;43.068;25.610;2024-03-22T00:50:23;5.60;99.90
70986;DHT22;58645;43.068;25.610;2024-03-22T00:52:50;5.60;99.90
70986;DHT22;58645;43.068;25.610;2024-03-22T00:55:17;5.60;99.90
70986;DHT22;58645;43.068;25.610;2024-03-22T00:57:42;5.60;99.90
70986;DHT22;58645;43.068;25.610;2024-03-22T01:00:08;5.60;99.90
70986;DHT22;58645;43.068;25.610;2024-03-22T01:02:35;5.60;99.90
70986;DHT22;58645;43.068;25.610;2024-03-22T01:05:00;5.50;99.90
70986;DHT22;58645;43.068;25.610;2024-03-22T01:07:26;5.50;99.90
70986;DHT22;58645;43.068;25.610;2024-03-22T01:09:52;5.50;99.90
70986;DHT22;58645;43.068;25.610;2024-03-22T01:12:18;5.50;99.90
70986;DHT22;58645;43.068;25.610;2024-03-22T01:14:43;5.40;99.90
70986;DHT22;58645;43.068;25.610;2024-03-22T01:17:09;5.40;99.90
70986;DHT22;58645;43.068;25.610;2024-03-22T01:19:35;5.40;99.90
70986;DHT22;58645;43.068;25.610;2024-03-22T01:22:01;5.40;99.90
70986;DHT22;58645;43.068;25.610;2024-03-22T01:24:26;5.30;99.90
70986;DHT22;58645;43.068;25.610;2024-03-22T01:26:52;5.30;99.90
70986;DHT22;58645;43.068;25.610;2024-03-22T01:29:18;5.30;99.90
70986;DHT22;58645;43.068;25.610;2024-03-22T01:31:44;5.30;99.90
70986;DHT22;58645;43.068;25.610;2024-03-22T01:34:09;5.30;99.90
70986;DHT22;58645;43.068;25.610;2024-03-22T01:36:35;5.20;99.90
70986;DHT22;58645;43.068;25.610;2024-03-22T01:39:01;5.20;99.90
70986;DHT22;58645;43.068;25.610;2024-03-22T01:41:27;5.20;99.90
70986;DHT22;58645;43.068;25.610;2024-03-22T01:43:52;5.10;99.90
70986;DHT22;58645;43.068;25.610;2024-03-22T01:46:18;5.10;99.90
70986;DHT22;58645;43.068;25.610;2024-03-22T01:48:44;5.10;99.90
70986;DHT22;58645;43.068;25.610;2024-03-22T01:51:10;5.00;99.90
70986;DHT22;58645;43.068;25.610;2024-03-22T01:53:37;5.00;99.90
70986;DHT22;58645;43.068;25.610;2024-03-22T01:56:03;4.90;99.90
70986;DHT22;58645;43.068;25.610;2024-03-22T01:58:29;4.80;99.90
70986;DHT22;58645;43.068;25.610;2024-03-22T02:00:55;4.80;99.90
70986;DHT22;58645;43.068;25.610;2024-03-22T02:03:21;4.60;99.90
70986;DHT22;58645;43.068;25.610;2024-03-22T02:05:47;4.50;99.90
70986;DHT22;58645;43.068;25.610;2024-03-22T02:08:13;4.50;99.90
70986;DHT22;58645;43.068;25.610;2024-03-22T02:10:38;4.40;99.90
70986;DHT22;58645;43.068;25.610;2024-03-22T02:13:04;4.40;99.90
70986;DHT22;58645;43.068;25.610;2024-03-22T02:15:30;4.30;99.90
70986;DHT22;58645;43.068;25.610;2024-03-22T02:17:56;4.10;99.90
70986;DHT22;58645;43.068;25.610;2024-03-22T02:20:22;4.10;99.90
70986;DHT22;58645;43.068;25.610;2024-03-22T02:22:48;3.90;99.90
70986;DHT22;58645;43.068;25.610;2024-03-22T02:25:14;3.90;99.90
70986;DHT22;58645;43.068;25.610;2024-03-22T02:27:41;3.80;99.90
70986;DHT22;58645;43.068;25.610;2024-03-22T02:30:07;3.70;99.90
70986;DHT22;58645;43.068;25.610;2024-03-22T02:32:33;3.70;99.90
70986;DHT22;58645;43.068;25.610;2024-03-22T02:34:59;3.60;99.90
70986;DHT22;58645;43.068;25.610;2024-03-22T02:37:24;3.60;99.90
70986;DHT22;58645;43.068;25.610;2024-03-22T02:39:50;3.60;99.90
70986;DHT22;58645;43.068;25.610;2024-03-22T02:42:16;3.50;99.90
70986;DHT22;58645;43.068;25.610;2024-03-22T02:44:41;3.50;99.90
70986;DHT22;58645;43.068;25.610;2024-03-22T02:47:10;3.50;99.90
70986;DHT22;58645;43.068;25.610;2024-03-22T02:49:37;3.50;99.90
70986;DHT22;58645;43.068;25.610;2024-03-22T02:52:03;3.40;99.90
70986;DHT22;58645;43.068;25.610;2024-03-22T02:54:28;3.40;99.90
70986;DHT22;58645;43.068;25.610;2024-03-22T02:56:54;3.40;99.90
70986;DHT22;58645;43.068;25.610;2024-03-22T02:59:20;3.30;99.90
70986;DHT22;58645;43.068;25.610;2024-03-22T03:01:46;3.30;99.90
70986;DHT22;58645;43.068;25.610;2024-03-22T03:04:11;3.30;99.90
70986;DHT22;58645;43.068;25.610;2024-03-22T03:06:37;3.30;99.90
70986;DHT22;58645;43.068;25.610;2024-03-22T03:09:03;3.30;99.90
70986;DHT22;58645;43.068;25.610;2024-03-22T03:11:32;3.30;99.90
70986;DHT22;58645;43.068;25.610;2024-03-22T03:13:58;3.30;99.90
70986;DHT22;58645;43.068;25.610;2024-03-22T03:16:24;3.20;99.90
70986;DHT22;58645;43.068;25.610;2024-03-22T03:18:50;3.20;99.90
70986;DHT22;58645;43.068;25.610;2024-03-22T03:21:15;3.20;99.90
70986;DHT22;58645;43.068;25.610;2024-03-22T03:23:41;3.20;99.90
70986;DHT22;58645;43.068;25.610;2024-03-22T03:26:07;3.10;99.90
70986;DHT22;58645;43.068;25.610;2024-03-22T03:28:32;3.10;99.90
70986;DHT22;58645;43.068;25.610;2024-03-22T03:30:58;3.10;99.90
70986;DHT22;58645;43.068;25.610;2024-03-22T03:33:24;3.00;99.90
70986;DHT22;58645;43.068;25.610;2024-03-22T03:35:50;3.00;99.90
70986;DHT22;58645;43.068;25.610;2024-03-22T03:38:16;3.00;99.90
70986;DHT22;58645;43.068;25.610;2024-03-22T03:40:42;3.00;99.90
70986;DHT22;58645;43.068;25.610;2024-03-22T03:43:07;3.00;99.90
70986;DHT22;58645;43.068;25.610;2024-03-22T03:45:36;3.00;99.90
70986;DHT22;58645;43.068;25.610;2024-03-22T03:48:02;2.90;99.90
70986;DHT22;58645;43.068;25.610;2024-03-22T03:50:28;2.90;99.90
70986;DHT22;58645;43.068;25.610;2024-03-22T03:52:53;2.90;99.90
70986;DHT22;58645;43.068;25.610;2024-03-22T03:55:19;2.90;99.90
70986;DHT22;58645;43.068;25.610;2024-03-22T03:57:45;2.90;99.90
70986;DHT22;58645;43.068;25.610;2024-03-22T04:00:11;2.90;99.90
70986;DHT22;58645;43.068;25.610;2024-03-22T04:02:37;2.90;99.90
70986;DHT22;58645;43.068;25.610;2024-03-22T04:05:03;2.90;99.90
70986;DHT22;58645;43.068;25.610;2024-03-22T04:07:29;2.80;99.90
70986;DHT22;58645;43.068;25.610;2024-03-22T04:09:54;2.80;99.90
70986;DHT22;58645;43.068;25.610;2024-03-22T04:12:20;2.80;99.90
70986;DHT22;58645;43.068;25.610;2024-03-22T04:14:46;2.80;99.90
70986;DHT22;58645;43.068;25.610;2024-03-22T04:17:12;2.80;99.90
70986;DHT22;58645;43.068;25.610;2024-03-22T04:19:37;2.80;99.90
70986;DHT22;58645;43.068;25.610;2024-03-22T04:22:03;2.80;99.90
70986;DHT22;58645;43.068;25.610;2024-03-22T04:24:29;2.70;99.90
70986;DHT22;58645;43.068;25.610;2024-03-22T04:26:55;2.70;99.90
70986;DHT22;58645;43.068;25.610;2024-03-22T04:29:20;2.60;99.90
70986;DHT22;58645;43.068;25.610;2024-03-22T04:31:46;2.60;99.90
70986;DHT22;58645;43.068;25.610;2024-03-22T04:34:12;2.60;99.90
70986;DHT22;58645;43.068;25.610;2024-03-22T04:36:38;2.60;99.90
70986;DHT22;58645;43.068;25.610;2024-03-22T04:39:03;2.60;99.90
70986;DHT22;58645;43.068;25.610;2024-03-22T04:41:29;2.60;99.90
70986;DHT22;58645;43.068;25.610;2024-03-22T04:43:55;2.70;99.90
70986;DHT22;58645;43.068;25.610;2024-03-22T04:46:20;2.70;99.90
70986;DHT22;58645;43.068;25.610;2024-03-22T04:48:46;2.70;99.90
70986;DHT22;58645;43.068;25.610;2024-03-22T04:51:12;2.80;99.90
70986;DHT22;58645;43.068;25.610;2024-03-22T04:53:38;2.80;99.90
70986;DHT22;58645;43.068;25.610;2024-03-22T04:56:04;2.80;99.90
70986;DHT22;58645;43.068;25.610;2024-03-22T04:58:30;2.90;99.90
70986;DHT22;58645;43.068;25.610;2024-03-22T05:00:57;3.00;99.90
70986;DHT22;58645;43.068;25.610;2024-03-22T05:03:23;3.10;99.90
70986;DHT22;58645;43.068;25.610;2024-03-22T05:05:50;3.20;99.90
70986;DHT22;58645;43.068;25.610;2024-03-22T05:08:16;3.30;99.90
70986;DHT22;58645;43.068;25.610;2024-03-22T05:10:42;3.40;99.90
70986;DHT22;58645;43.068;25.610;2024-03-22T05:13:08;3.50;99.90
70986;DHT22;58645;43.068;25.610;2024-03-22T05:15:34;4.00;99.90
70986;DHT22;58645;43.068;25.610;2024-03-22T05:18:00;4.80;99.90
70986;DHT22;58645;43.068;25.610;2024-03-22T05:20:26;5.60;99.90
70986;DHT22;58645;43.068;25.610;2024-03-22T05:22:52;6.50;99.90
70986;DHT22;58645;43.068;25.610;2024-03-22T05:25:18;7.20;99.90
70986;DHT22;58645;43.068;25.610;2024-03-22T05:27:44;7.70;99.90
70986;DHT22;58645;43.068;25.610;2024-03-22T05:30:11;8.40;99.90
70986;DHT22;58645;43.068;25.610;2024-03-22T05:32:37;8.80;98.50
70986;DHT22;58645;43.068;25.610;2024-03-22T05:35:04;8.90;92.60
70986;DHT22;58645;43.068;25.610;2024-03-22T05:37:30;9.00;90.00
70986;DHT22;58645;43.068;25.610;2024-03-22T05:39:55;9.60;87.20
70986;DHT22;58645;43.068;25.610;2024-03-22T05:42:21;9.90;84.40
70986;DHT22;58645;43.068;25.610;2024-03-22T05:44:47;10.30;80.60
70986;DHT22;58645;43.068;25.610;2024-03-22T05:47:13;10.60;78.30
70986;DHT22;58645;43.068;25.610;2024-03-22T05:49:39;10.90;76.90
70986;DHT22;58645;43.068;25.610;2024-03-22T05:52:05;11.50;74.60
70986;DHT22;58645;43.068;25.610;2024-03-22T05:54:31;11.70;72.60
70986;DHT22;58645;43.068;25.610;2024-03-22T05:56:57;12.20;70.20
70986;DHT22;58645;43.068;25.610;2024-03-22T05:59:22;12.50;68.10
70986;DHT22;58645;43.068;25.610;2024-03-22T06:01:48;12.40;66.80
70986;DHT22;58645;43.068;25.610;2024-03-22T06:04:14;12.80;66.60
70986;DHT22;58645;43.068;25.610;2024-03-22T06:06:40;13.10;65.20
70986;DHT22;58645;43.068;25.610;2024-03-22T06:09:06;13.40;64.70
70986;DHT22;58645;43.068;25.610;2024-03-22T06:11:37;13.50;62.50
70986;DHT22;58645;43.068;25.610;2024-03-22T06:14:02;13.40;62.00
70986;DHT22;58645;43.068;25.610;2024-03-22T06:16:28;13.60;61.20
70986;DHT22;58645;43.068;25.610;2024-03-22T06:18:54;13.80;60.30
70986;DHT22;58645;43.068;25.610;2024-03-22T06:21:20;13.80;60.40
70986;DHT22;58645;43.068;25.610;2024-03-22T06:23:51;14.00;60.20
70986;DHT22;58645;43.068;25.610;2024-03-22T06:26:16;14.70;59.50
70986;DHT22;58645;43.068;25.610;2024-03-22T06:28:43;15.30;55.50
70986;DHT22;58645;43.068;25.610;2024-03-22T06:31:09;14.70;54.60
70986;DHT22;58645;43.068;25.610;2024-03-22T06:33:34;14.60;55.40
70986;DHT22;58645;43.068;25.610;2024-03-22T06:36:00;14.60;54.80
70986;DHT22;58645;43.068;25.610;2024-03-22T06:38:26;14.50;55.70
70986;DHT22;58645;43.068;25.610;2024-03-22T06:40:52;14.90;56.00
70986;DHT22;58645;43.068;25.610;2024-03-22T06:43:18;15.40;54.30
70986;DHT22;58645;43.068;25.610;2024-03-22T06:45:46;15.40;53.60
70986;DHT22;58645;43.068;25.610;2024-03-22T06:48:13;15.30;52.40
70986;DHT22;58645;43.068;25.610;2024-03-22T06:50:41;14.90;51.50
70986;DHT22;58645;43.068;25.610;2024-03-22T06:53:07;15.60;50.90
70986;DHT22;58645;43.068;25.610;2024-03-22T06:55:33;15.80;50.00
70986;DHT22;58645;43.068;25.610;2024-03-22T06:57:58;16.00;49.70
70986;DHT22;58645;43.068;25.610;2024-03-22T07:00:24;16.20;48.60
70986;DHT22;58645;43.068;25.610;2024-03-22T07:02:50;16.70;48.20
70986;DHT22;58645;43.068;25.610;2024-03-22T07:05:16;17.10;43.90
70986;DHT22;58645;43.068;25.610;2024-03-22T07:07:41;17.10;43.60
70986;DHT22;58645;43.068;25.610;2024-03-22T07:10:07;17.80;43.30
70986;DHT22;58645;43.068;25.610;2024-03-22T07:12:33;18.00;43.70
70986;DHT22;58645;43.068;25.610;2024-03-22T07:15:00;18.70;43.20
70986;DHT22;58645;43.068;25.610;2024-03-22T07:17:27;19.00;41.70
70986;DHT22;58645;43.068;25.610;2024-03-22T07:19:53;19.40;41.20
70986;DHT22;58645;43.068;25.610;2024-03-22T07:22:20;19.40;39.90
70986;DHT22;58645;43.068;25.610;2024-03-22T07:24:46;19.50;38.70
70986;DHT22;58645;43.068;25.610;2024-03-22T07:27:13;19.20;39.10
70986;DHT22;58645;43.068;25.610;2024-03-22T07:29:41;19.50;39.40
70986;DHT22;58645;43.068;25.610;2024-03-22T07:32:07;19.60;39.70
70986;DHT22;58645;43.068;25.610;2024-03-22T07:34:32;19.30;38.10
70986;DHT22;58645;43.068;25.610;2024-03-22T07:36:58;19.30;38.20
70986;DHT22;58645;43.068;25.610;2024-03-22T07:39:24;19.70;38.70
70986;DHT22;58645;43.068;25.610;2024-03-22T07:41:50;19.90;38.40
70986;DHT22;58645;43.068;25.610;2024-03-22T07:44:16;20.10;38.00
70986;DHT22;58645;43.068;25.610;2024-03-22T07:46:52;20.30;37.50
70986;DHT22;58645;43.068;25.610;2024-03-22T07:49:18;20.30;38.30
70986;DHT22;58645;43.068;25.610;2024-03-22T07:51:44;20.50;37.80
70986;DHT22;58645;43.068;25.610;2024-03-22T07:54:09;20.60;36.40
70986;DHT22;58645;43.068;25.610;2024-03-22T07:56:35;19.90;37.80
70986;DHT22;58645;43.068;25.610;2024-03-22T07:59:00;20.00;37.70
70986;DHT22;58645;43.068;25.610;2024-03-22T08:01:26;20.60;35.50
70986;DHT22;58645;43.068;25.610;2024-03-22T08:03:52;20.60;35.50
70986;DHT22;58645;43.068;25.610;2024-03-22T08:06:18;20.60;35.80
70986;DHT22;58645;43.068;25.610;2024-03-22T08:08:44;20.30;34.00
70986;DHT22;58645;43.068;25.610;2024-03-22T08:11:10;20.30;33.60
70986;DHT22;58645;43.068;25.610;2024-03-22T08:13:36;20.50;33.10
70986;DHT22;58645;43.068;25.610;2024-03-22T08:16:02;20.80;32.00
70986;DHT22;58645;43.068;25.610;2024-03-22T08:18:28;20.80;31.60
70986;DHT22;58645;43.068;25.610;2024-03-22T08:20:54;20.70;32.30
70986;DHT22;58645;43.068;25.610;2024-03-22T08:23:20;20.60;32.00
70986;DHT22;58645;43.068;25.610;2024-03-22T08:25:48;20.70;32.00
70986;DHT22;58645;43.068;25.610;2024-03-22T08:28:14;20.50;31.90
70986;DHT22;58645;43.068;25.610;2024-03-22T08:30:41;20.70;32.70
70986;DHT22;58645;43.068;25.610;2024-03-22T08:33:08;20.80;31.70
70986;DHT22;58645;43.068;25.610;2024-03-22T08:35:34;20.20;30.70
70986;DHT22;58645;43.068;25.610;2024-03-22T08:38:00;20.00;32.30
70986;DHT22;58645;43.068;25.610;2024-03-22T08:40:26;20.30;34.30
70986;DHT22;58645;43.068;25.610;2024-03-22T08:42:52;20.40;32.00
70986;DHT22;58645;43.068;25.610;2024-03-22T08:45:17;19.70;32.40
70986;DHT22;58645;43.068;25.610;2024-03-22T08:47:43;20.00;33.40
70986;DHT22;58645;43.068;25.610;2024-03-22T08:50:11;20.50;30.90
70986;DHT22;58645;43.068;25.610;2024-03-22T08:52:37;20.50;33.00
70986;DHT22;58645;43.068;25.610;2024-03-22T08:55:04;21.10;30.80
70986;DHT22;58645;43.068;25.610;2024-03-22T08:57:31;21.60;31.00
70986;DHT22;58645;43.068;25.610;2024-03-22T08:59:58;21.90;30.10
70986;DHT22;58645;43.068;25.610;2024-03-22T09:02:23;21.90;29.50
70986;DHT22;58645;43.068;25.610;2024-03-22T09:04:49;21.90;29.20
70986;DHT22;58645;43.068;25.610;2024-03-22T09:07:15;22.40;28.60
70986;DHT22;58645;43.068;25.610;2024-03-22T09:09:40;22.10;29.00
70986;DHT22;58645;43.068;25.610;2024-03-22T09:12:07;21.50;30.10
70986;DHT22;58645;43.068;25.610;2024-03-22T09:14:33;20.70;30.80
70986;DHT22;58645;43.068;25.610;2024-03-22T09:16:59;20.40;31.50
70986;DHT22;58645;43.068;25.610;2024-03-22T09:19:24;20.40;31.90
70986;DHT22;58645;43.068;25.610;2024-03-22T09:21:50;20.60;31.20
70986;DHT22;58645;43.068;25.610;2024-03-22T09:24:16;20.20;31.30
70986;DHT22;58645;43.068;25.610;2024-03-22T09:26:41;19.90;32.20
70986;DHT22;58645;43.068;25.610;2024-03-22T09:29:08;20.60;31.60
70986;DHT22;58645;43.068;25.610;2024-03-22T09:31:34;21.10;31.20
70986;DHT22;58645;43.068;25.610;2024-03-22T09:33:59;21.60;29.10
70986;DHT22;58645;43.068;25.610;2024-03-22T09:36:25;19.90;30.60
70986;DHT22;58645;43.068;25.610;2024-03-22T09:38:51;19.90;33.00
70986;DHT22;58645;43.068;25.610;2024-03-22T09:41:23;20.00;32.00
70986;DHT22;58645;43.068;25.610;2024-03-22T09:43:51;20.00;32.60
70986;DHT22;58645;43.068;25.610;2024-03-22T09:46:20;20.10;33.10
70986;DHT22;58645;43.068;25.610;2024-03-22T09:48:50;19.90;33.80
70986;DHT22;58645;43.068;25.610;2024-03-22T09:51:17;19.70;34.00
70986;DHT22;58645;43.068;25.610;2024-03-22T09:53:48;19.30;35.40
70986;DHT22;58645;43.068;25.610;2024-03-22T09:56:15;19.50;35.70
70986;DHT22;58645;43.068;25.610;2024-03-22T09:58:41;19.50;34.60
70986;DHT22;58645;43.068;25.610;2024-03-22T10:01:07;19.00;35.30
70986;DHT22;58645;43.068;25.610;2024-03-22T10:03:33;18.80;36.30
70986;DHT22;58645;43.068;25.610;2024-03-22T10:05:59;19.40;36.40
70986;DHT22;58645;43.068;25.610;2024-03-22T10:08:25;19.90;35.20
70986;DHT22;58645;43.068;25.610;2024-03-22T10:10:50;19.80;34.80
70986;DHT22;58645;43.068;25.610;2024-03-22T10:13:16;20.70;33.70
70986;DHT22;58645;43.068;25.610;2024-03-22T10:15:42;20.50;33.70
70986;DHT22;58645;43.068;25.610;2024-03-22T10:18:10;20.00;33.70
70986;DHT22;58645;43.068;25.610;2024-03-22T10:20:35;19.70;35.00
70986;DHT22;58645;43.068;25.610;2024-03-22T10:23:01;19.20;36.70
70986;DHT22;58645;43.068;25.610;2024-03-22T10:25:27;19.20;36.70
70986;DHT22;58645;43.068;25.610;2024-03-22T10:27:54;19.60;35.80
70986;DHT22;58645;43.068;25.610;2024-03-22T10:30:22;19.70;36.40
70986;DHT22;58645;43.068;25.610;2024-03-22T10:32:48;20.50;35.50
70986;DHT22;58645;43.068;25.610;2024-03-22T10:35:15;20.90;33.50
70986;DHT22;58645;43.068;25.610;2024-03-22T10:37:41;21.40;35.00
70986;DHT22;58645;43.068;25.610;2024-03-22T10:40:08;21.90;34.00
70986;DHT22;58645;43.068;25.610;2024-03-22T10:42:41;22.20;32.90
70986;DHT22;58645;43.068;25.610;2024-03-22T10:45:09;22.60;33.70
70986;DHT22;58645;43.068;25.610;2024-03-22T10:47:35;23.00;31.90
70986;DHT22;58645;43.068;25.610;2024-03-22T10:50:10;22.70;30.80
70986;DHT22;58645;43.068;25.610;2024-03-22T10:52:56;22.50;31.00
70986;DHT22;58645;43.068;25.610;2024-03-22T10:55:32;20.80;33.20
70986;DHT22;58645;43.068;25.610;2024-03-22T10:57:59;20.90;35.50
70986;DHT22;58645;43.068;25.610;2024-03-22T11:00:34;21.50;34.00
70986;DHT22;58645;43.068;25.610;2024-03-22T11:03:02;22.00;31.90
70986;DHT22;58645;43.068;25.610;2024-03-22T11:05:28;22.20;31.90
70986;DHT22;58645;43.068;25.610;2024-03-22T11:08:04;22.70;31.10
70986;DHT22;58645;43.068;25.610;2024-03-22T11:10:33;22.70;31.20
70986;DHT22;58645;43.068;25.610;2024-03-22T11:13:06;23.10;29.70
70986;DHT22;58645;43.068;25.610;2024-03-22T11:15:33;23.00;30.80
70986;DHT22;58645;43.068;25.610;2024-03-22T11:17:59;22.80;30.70
70986;DHT22;58645;43.068;25.610;2024-03-22T11:20:26;22.40;32.10
70986;DHT22;58645;43.068;25.610;2024-03-22T11:22:52;22.20;32.30
70986;DHT22;58645;43.068;25.610;2024-03-22T11:25:18;21.60;32.40
70986;DHT22;58645;43.068;25.610;2024-03-22T11:27:48;20.90;33.70
70986;DHT22;58645;43.068;25.610;2024-03-22T11:30:15;21.40;34.30
70986;DHT22;58645;43.068;25.610;2024-03-22T11:32:41;21.50;32.40
70986;DHT22;58645;43.068;25.610;2024-03-22T11:35:11;21.60;32.40
70986;DHT22;58645;43.068;25.610;2024-03-22T11:37:41;21.80;33.50
70986;DHT22;58645;43.068;25.610;2024-03-22T11:40:11;21.80;32.00
70986;DHT22;58645;43.068;25.610;2024-03-22T11:42:43;22.10;32.70
70986;DHT22;58645;43.068;25.610;2024-03-22T11:45:11;21.90;31.50
70986;DHT22;58645;43.068;25.610;2024-03-22T11:47:37;22.30;33.10
70986;DHT22;58645;43.068;25.610;2024-03-22T11:50:03;22.50;32.90
70986;DHT22;58645;43.068;25.610;2024-03-22T11:52:30;22.30;32.30
70986;DHT22;58645;43.068;25.610;2024-03-22T11:54:57;22.40;31.30
70986;DHT22;58645;43.068;25.610;2024-03-22T11:57:23;22.90;32.30
70986;DHT22;58645;43.068;25.610;2024-03-22T11:59:50;22.80;30.60
70986;DHT22;58645;43.068;25.610;2024-03-22T12:02:17;22.90;30.70
70986;DHT22;58645;43.068;25.610;2024-03-22T12:04:46;22.70;31.20
70986;DHT22;58645;43.068;25.610;2024-03-22T12:07:16;22.10;32.60
70986;DHT22;58645;43.068;25.610;2024-03-22T12:09:45;21.30;33.10
70986;DHT22;58645;43.068;25.610;2024-03-22T12:12:12;21.30;33.80
70986;DHT22;58645;43.068;25.610;2024-03-22T12:14:38;21.50;33.60
70986;DHT22;58645;43.068;25.610;2024-03-22T12:17:05;21.90;33.10
70986;DHT22;58645;43.068;25.610;2024-03-22T12:19:32;21.00;34.60
70986;DHT22;58645;43.068;25.610;2024-03-22T12:21:58;20.30;33.80
70986;DHT22;58645;43.068;25.610;2024-03-22T12:24:24;20.40;34.70
70986;DHT22;58645;43.068;25.610;2024-03-22T12:26:50;20.30;35.00
70986;DHT22;58645;43.068;25.610;2024-03-22T12:29:17;20.40;35.50
70986;DHT22;58645;43.068;25.610;2024-03-22T12:31:43;20.70;35.30
70986;DHT22;58645;43.068;25.610;2024-03-22T12:34:09;20.70;35.70
70986;DHT22;58645;43.068;25.610;2024-03-22T12:36:34;21.00;34.40
70986;DHT22;58645;43.068;25.610;2024-03-22T12:39:00;21.30;35.30
70986;DHT22;58645;43.068;25.610;2024-03-22T12:41:29;21.80;33.90
70986;DHT22;58645;43.068;25.610;2024-03-22T12:43:55;20.80;33.70
70986;DHT22;58645;43.068;25.610;2024-03-22T12:46:21;20.70;34.90
70986;DHT22;58645;43.068;25.610;2024-03-22T12:48:47;20.00;35.50
70986;DHT22;58645;43.068;25.610;2024-03-22T12:51:13;19.50;36.80
70986;DHT22;58645;43.068;25.610;2024-03-22T12:53:38;19.20;37.20
70986;DHT22;58645;43.068;25.610;2024-03-22T12:56:04;18.60;38.70
70986;DHT22;58645;43.068;25.610;2024-03-22T12:58:30;17.80;40.10
70986;DHT22;58645;43.068;25.610;2024-03-22T13:00:57;17.00;41.40
70986;DHT22;58645;43.068;25.610;2024-03-22T13:03:23;16.60;42.80
70986;DHT22;58645;43.068;25.610;2024-03-22T13:05:49;16.20;43.40
70986;DHT22;58645;43.068;25.610;2024-03-22T13:08:14;16.00;46.00
70986;DHT22;58645;43.068;25.610;2024-03-22T13:10:40;16.00;45.00
70986;DHT22;58645;43.068;25.610;2024-03-22T13:13:09;15.80;44.90
70986;DHT22;58645;43.068;25.610;2024-03-22T13:15:35;15.60;44.30
70986;DHT22;58645;43.068;25.610;2024-03-22T13:18:03;15.60;45.00
70986;DHT22;58645;43.068;25.610;2024-03-22T13:20:29;15.50;45.70
70986;DHT22;58645;43.068;25.610;2024-03-22T13:22:55;15.20;46.20
70986;DHT22;58645;43.068;25.610;2024-03-22T13:25:21;15.10;47.30
70986;DHT22;58645;43.068;25.610;2024-03-22T13:27:46;15.00;47.10
70986;DHT22;58645;43.068;25.610;2024-03-22T13:30:12;14.90;47.40
70986;DHT22;58645;43.068;25.610;2024-03-22T13:32:40;14.80;47.60
70986;DHT22;58645;43.068;25.610;2024-03-22T13:35:06;14.70;47.70
70986;DHT22;58645;43.068;25.610;2024-03-22T13:37:32;14.60;48.00
70986;DHT22;58645;43.068;25.610;2024-03-22T13:39:58;14.60;48.20
70986;DHT22;58645;43.068;25.610;2024-03-22T13:42:25;14.70;48.30
70986;DHT22;58645;43.068;25.610;2024-03-22T13:44:52;14.60;48.50
70986;DHT22;58645;43.068;25.610;2024-03-22T13:47:17;14.60;48.10
70986;DHT22;58645;43.068;25.610;2024-03-22T13:49:44;14.60;48.50
70986;DHT22;58645;43.068;25.610;2024-03-22T13:52:13;14.40;48.50
70986;DHT22;58645;43.068;25.610;2024-03-22T13:54:39;14.30;48.40
70986;DHT22;58645;43.068;25.610;2024-03-22T13:57:04;14.10;49.00
70986;DHT22;58645;43.068;25.610;2024-03-22T13:59:31;14.00;49.60
70986;DHT22;58645;43.068;25.610;2024-03-22T14:01:57;14.00;49.90
70986;DHT22;58645;43.068;25.610;2024-03-22T14:04:23;14.00;49.60
70986;DHT22;58645;43.068;25.610;2024-03-22T14:06:51;14.00;49.00
70986;DHT22;58645;43.068;25.610;2024-03-22T14:09:17;13.80;49.40
70986;DHT22;58645;43.068;25.610;2024-03-22T14:11:43;13.70;50.00
70986;DHT22;58645;43.068;25.610;2024-03-22T14:14:09;13.60;50.20
70986;DHT22;58645;43.068;25.610;2024-03-22T14:16:38;13.60;50.10
70986;DHT22;58645;43.068;25.610;2024-03-22T14:19:03;13.50;50.50
70986;DHT22;58645;43.068;25.610;2024-03-22T14:21:29;13.50;50.90
70986;DHT22;58645;43.068;25.610;2024-03-22T14:23:55;13.40;51.30
70986;DHT22;58645;43.068;25.610;2024-03-22T14:26:21;13.40;50.50
70986;DHT22;58645;43.068;25.610;2024-03-22T14:28:47;13.40;50.70
70986;DHT22;58645;43.068;25.610;2024-03-22T14:31:13;13.40;50.50
70986;DHT22;58645;43.068;25.610;2024-03-22T14:33:39;13.30;50.70
70986;DHT22;58645;43.068;25.610;2024-03-22T14:36:07;13.30;50.50
70986;DHT22;58645;43.068;25.610;2024-03-22T14:38:34;13.30;50.60
70986;DHT22;58645;43.068;25.610;2024-03-22T14:41:00;13.30;51.10
70986;DHT22;58645;43.068;25.610;2024-03-22T14:43:27;13.30;50.90
70986;DHT22;58645;43.068;25.610;2024-03-22T14:45:55;13.30;51.10
70986;DHT22;58645;43.068;25.610;2024-03-22T14:48:22;13.20;50.70
70986;DHT22;58645;43.068;25.610;2024-03-22T14:50:49;13.20;50.90
70986;DHT22;58645;43.068;25.610;2024-03-22T14:53:16;13.10;51.00
70986;DHT22;58645;43.068;25.610;2024-03-22T14:55:57;13.00;51.10
70986;DHT22;58645;43.068;25.610;2024-03-22T14:58:30;13.00;50.90
70986;DHT22;58645;43.068;25.610;2024-03-22T15:00:57;13.10;51.40
70986;DHT22;58645;43.068;25.610;2024-03-22T15:03:24;13.00;51.50
70986;DHT22;58645;43.068;25.610;2024-03-22T15:05:54;13.00;51.40
70986;DHT22;58645;43.068;25.610;2024-03-22T15:08:20;13.00;51.60
70986;DHT22;58645;43.068;25.610;2024-03-22T15:10:47;13.00;52.30
70986;DHT22;58645;43.068;25.610;2024-03-22T15:13:13;12.90;52.60
70986;DHT22;58645;43.068;25.610;2024-03-22T15:15:39;12.80;52.90
70986;DHT22;58645;43.068;25.610;2024-03-22T15:18:06;12.80;52.90